Time;durP1;ratioP1;P1;durP2;ratioP2;P2;SDS_P1;SDS_P2;PMS_P1;PMS_P2;Temp;Humidity;BMP_temperature;BMP_pressure;BME280_temperature;BME280_humidity;BME280_pressure;Samples;Min_cycle;Max_cycle;Signal;HPM_P1;HPM_P2
2021/06/08 00:00:51;;;;;;;3.80;1.37;;;19.50;55.00;;;;;;5075124;28;20451;-49
2021/06/08 00:03:22;;;;;;;2.43;1.50;;;19.40;55.30;;;;;;5084414;28;20455;-49
2021/06/08 00:05:55;;;;;;;1.53;1.23;;;19.40;55.30;;;;;;5081891;28;20483;-50
2021/06/08 00:08:26;;;;;;;2.23;1.00;;;19.40;55.40;;;;;;5083253;28;20455;-50
2021/06/08 00:10:56;;;;;;;2.10;1.50;;;19.50;53.60;;;;;;5078329;28;20444;-48
2021/06/08 00:13:27;;;;;;;5.10;1.60;;;19.50;53.50;;;;;;5086293;28;20819;-49
2021/06/08 00:15:57;;;;;;;0.83;0.83;;;19.70;52.90;;;;;;5079970;28;20426;-49
2021/06/08 00:18:28;;;;;;;2.40;1.20;;;19.80;53.80;;;;;;5079353;28;20988;-51
2021/06/08 00:21:00;;;;;;;2.50;1.17;;;19.90;53.70;;;;;;5086042;28;20471;-46
2021/06/08 00:23:30;;;;;;;1.87;1.17;;;19.90;51.70;;;;;;5083448;28;20451;-44
2021/06/08 00:26:02;;;;;;;1.97;1.17;;;20.00;52.00;;;;;;5076899;28;20483;-46
2021/06/08 00:28:32;;;;;;;1.53;0.90;;;19.70;54.00;;;;;;5085130;28;20482;-50
2021/06/08 00:31:02;;;;;;;5.57;1.20;;;19.60;51.10;;;;;;5083037;28;20466;-48
2021/06/08 00:33:33;;;;;;;2.53;1.40;;;19.30;53.50;;;;;;5085968;28;20443;-45
2021/06/08 00:36:06;;;;;;;2.07;1.40;;;19.50;54.70;;;;;;5084884;28;20548;-48
2021/06/08 00:38:36;;;;;;;2.73;1.20;;;19.60;53.10;;;;;;5085360;28;20871;-49
2021/06/08 00:41:07;;;;;;;3.83;1.60;;;19.50;54.60;;;;;;5085113;28;20449;-49
2021/06/08 00:43:37;;;;;;;2.30;1.23;;;19.50;53.10;;;;;;5085494;28;20448;-47
2021/06/08 00:46:08;;;;;;;1.10;1.00;;;19.40;51.90;;;;;;5085040;28;20509;-49
2021/06/08 00:48:39;;;;;;;2.50;1.30;;;19.50;52.20;;;;;;5081941;28;20487;-44
2021/06/08 00:51:11;;;;;;;3.27;1.30;;;19.50;50.70;;;;;;5084714;28;20450;-44
2021/06/08 00:53:41;;;;;;;2.00;1.33;;;19.40;52.80;;;;;;5085632;28;20902;-45
2021/06/08 00:56:12;;;;;;;1.73;1.30;;;19.50;52.20;;;;;;5083139;28;20583;-44
2021/06/08 00:58:42;;;;;;;1.67;1.33;;;19.50;53.10;;;;;;5068776;28;20522;-49
2021/06/08 01:01:13;;;;;;;1.60;1.03;;;19.60;53.20;;;;;;5084956;28;20479;-48
2021/06/08 01:03:44;;;;;;;1.30;1.20;;;19.60;53.10;;;;;;5084833;28;20888;-49
2021/06/08 01:06:16;;;;;;;2.53;1.33;;;19.50;52.20;;;;;;5084009;28;20418;-46
2021/06/08 01:08:46;;;;;;;2.67;1.40;;;19.40;53.70;;;;;;5082523;28;20425;-44
2021/06/08 01:11:17;;;;;;;4.70;1.40;;;19.30;54.20;;;;;;5084393;28;20519;-45
2021/06/08 01:13:47;;;;;;;1.77;1.40;;;19.20;54.50;;;;;;5084692;28;20455;-45
2021/06/08 01:16:35;;;;;;;3.43;1.50;;;19.10;56.20;;;;;;5079336;28;20527;-47
2021/06/08 01:19:05;;;;;;;2.13;1.10;;;19.10;57.10;;;;;;5083665;28;20426;-46
2021/06/08 01:21:38;;;;;;;2.60;1.70;;;19.00;55.60;;;;;;5083938;28;20455;-51
2021/06/08 01:24:11;;;;;;;1.77;1.67;;;18.80;56.90;;;;;;5083877;28;20463;-46
2021/06/08 01:26:42;;;;;;;2.57;1.17;;;18.70;55.90;;;;;;5085161;28;20466;-47
2021/06/08 01:29:12;;;;;;;2.20;1.73;;;18.70;55.40;;;;;;5081081;28;20478;-50
2021/06/08 01:31:44;;;;;;;3.13;1.40;;;18.70;54.80;;;;;;5084145;28;20527;-51
2021/06/08 01:34:16;;;;;;;2.40;1.60;;;18.60;56.10;;;;;;5084245;28;20424;-46
2021/06/08 01:36:48;;;;;;;2.03;1.10;;;18.50;56.90;;;;;;5084029;28;20479;-47
2021/06/08 01:39:19;;;;;;;3.70;1.63;;;18.40;56.10;;;;;;5079556;28;21178;-46
2021/06/08 01:41:50;;;;;;;6.07;3.50;;;18.50;56.30;;;;;;5084271;28;20583;-47
2021/06/08 01:44:27;;;;;;;61.23;56.90;;;18.60;55.10;;;;;;5083953;28;20497;-46
2021/06/08 01:47:17;;;;;;;581.07;482.33;;;18.60;55.90;;;;;;5083981;28;20456;-46
2021/06/08 01:49:47;;;;;;;24.07;21.67;;;18.60;54.80;;;;;;5084033;28;20471;-49
2021/06/08 01:52:28;;;;;;;2.83;2.50;;;18.50;55.30;;;;;;5084012;28;20447;-47
2021/06/08 01:55:06;;;;;;;6.30;3.13;;;18.30;56.00;;;;;;5078593;28;20534;-48
2021/06/08 01:57:41;;;;;;;47.37;42.90;;;18.20;56.10;;;;;;5083358;28;20474;-51
2021/06/08 02:00:18;;;;;;;33.73;28.90;;;18.10;57.90;;;;;;5084056;28;20443;-49
2021/06/08 02:03:02;;;;;;;6.00;4.20;;;18.00;58.70;;;;;;5083560;28;20490;-51
2021/06/08 02:05:43;;;;;;;3.57;2.73;;;17.80;58.60;;;;;;5073783;28;20451;-53
2021/06/08 02:08:27;;;;;;;4.73;2.03;;;17.80;58.30;;;;;;5084530;28;20475;-53
2021/06/08 02:11:02;;;;;;;8.40;7.00;;;17.70;59.30;;;;;;5082596;28;20507;-51
2021/06/08 02:13:42;;;;;;;4.93;3.80;;;17.60;62.20;;;;;;5079305;28;20554;-49
2021/06/08 02:16:20;;;;;;;3.10;2.40;;;17.60;60.60;;;;;;5082942;28;20451;-51
2021/06/08 02:18:52;;;;;;;2.47;1.53;;;17.60;60.00;;;;;;5081952;28;20482;-53
2021/06/08 02:21:29;;;;;;;3.40;1.13;;;17.50;62.90;;;;;;5083812;28;20974;-53
2021/06/08 02:24:03;;;;;;;3.50;1.60;;;17.50;61.60;;;;;;5082759;28;20444;-52
2021/06/08 02:26:37;;;;;;;1.67;1.07;;;17.50;64.00;;;;;;5081515;28;20477;-53
2021/06/08 02:29:08;;;;;;;1.37;1.20;;;17.50;61.40;;;;;;5074572;28;20519;-54
2021/06/08 02:31:42;;;;;;;4.43;1.37;;;17.50;60.50;;;;;;5083858;28;20570;-53
2021/06/08 02:34:13;;;;;;;2.70;1.60;;;17.50;63.40;;;;;;5082839;28;20440;-50
2021/06/08 02:36:46;;;;;;;2.20;1.50;;;17.50;63.40;;;;;;5081093;28;20433;-51
2021/06/08 02:39:18;;;;;;;2.87;1.63;;;17.50;60.30;;;;;;5082335;28;20491;-51
2021/06/08 02:41:50;;;;;;;1.87;1.03;;;17.50;62.80;;;;;;5083528;28;20509;-51
2021/06/08 02:44:23;;;;;;;1.90;1.40;;;17.60;61.50;;;;;;5082050;28;20507;-47
2021/06/08 02:46:54;;;;;;;1.60;1.43;;;17.60;63.90;;;;;;5083713;28;20490;-50
2021/06/08 02:49:26;;;;;;;3.60;1.10;;;17.60;61.50;;;;;;5083278;28;20475;-54
2021/06/08 02:51:57;;;;;;;1.33;1.23;;;17.60;64.10;;;;;;5083589;28;20451;-54
2021/06/08 02:54:29;;;;;;;3.13;1.47;;;17.60;61.20;;;;;;5080972;28;20502;-53
2021/06/08 02:57:00;;;;;;;1.30;1.20;;;17.70;63.30;;;;;;5081806;28;20446;-54
2021/06/08 02:59:34;;;;;;;2.97;1.47;;;17.70;66.20;;;;;;5082989;28;20483;-53
2021/06/08 03:02:11;;;;;;;3.10;1.53;;;17.60;68.90;;;;;;5083032;28;20485;-51
2021/06/08 03:04:46;;;;;;;1.43;1.30;;;17.50;70.40;;;;;;5081536;28;20475;-53
2021/06/08 03:07:19;;;;;;;2.00;1.10;;;17.40;71.80;;;;;;5075165;28;20481;-49
2021/06/08 03:09:57;;;;;;;1.93;1.10;;;17.30;71.70;;;;;;5078652;28;20447;-51
2021/06/08 03:12:31;;;;;;;2.90;0.90;;;17.20;72.50;;;;;;5083018;28;20498;-52
2021/06/08 03:15:05;;;;;;;2.00;1.17;;;17.10;72.50;;;;;;5082287;28;20459;-53
2021/06/08 03:17:37;;;;;;;2.13;1.57;;;17.00;73.40;;;;;;5082127;28;20514;-51
2021/06/08 03:20:13;;;;;;;3.47;1.07;;;16.80;73.60;;;;;;5081400;28;20443;-52
2021/06/08 03:22:47;;;;;;;1.07;0.97;;;16.70;74.40;;;;;;5082793;28;20486;-53
2021/06/08 03:25:22;;;;;;;2.00;0.93;;;16.70;74.70;;;;;;5081900;28;20470;-55
2021/06/08 03:27:56;;;;;;;3.47;1.60;;;16.50;75.70;;;;;;5083493;28;20451;-52
2021/06/08 03:30:28;;;;;;;1.50;1.40;;;16.40;76.60;;;;;;5080193;28;20484;-52
2021/06/08 03:32:59;;;;;;;2.63;1.20;;;16.30;77.20;;;;;;5082800;28;20448;-52
2021/06/08 03:35:31;;;;;;;1.33;1.10;;;16.30;77.70;;;;;;5076214;28;20451;-53
2021/06/08 03:38:02;;;;;;;1.60;1.37;;;16.20;77.80;;;;;;5082213;28;20503;-53
2021/06/08 03:40:34;;;;;;;1.47;1.23;;;16.10;79.10;;;;;;5080409;28;20566;-52
2021/06/08 03:43:05;;;;;;;1.70;1.23;;;16.00;80.90;;;;;;5080880;28;20458;-52
2021/06/08 03:45:37;;;;;;;2.77;1.50;;;15.90;82.50;;;;;;5081443;28;20494;-54
2021/06/08 03:48:08;;;;;;;2.23;1.30;;;15.80;82.60;;;;;;5082041;28;20480;-54
2021/06/08 03:50:39;;;;;;;1.83;1.07;;;15.80;84.20;;;;;;5070467;28;20484;-52
2021/06/08 03:53:09;;;;;;;1.63;1.20;;;15.70;83.80;;;;;;5082519;28;20438;-51
2021/06/08 03:55:42;;;;;;;1.33;1.13;;;15.70;85.80;;;;;;5080677;28;20440;-52
2021/06/08 03:58:14;;;;;;;1.30;1.20;;;15.70;86.60;;;;;;5079903;28;20511;-51
2021/06/08 04:00:46;;;;;;;1.93;0.93;;;15.70;86.70;;;;;;5080743;28;20536;-51
2021/06/08 04:03:20;;;;;;;1.73;1.13;;;15.60;89.00;;;;;;5081821;28;20448;-53
2021/06/08 04:05:54;;;;;;;3.63;1.77;;;15.60;87.90;;;;;;5077418;28;20456;-49
2021/06/08 04:08:27;;;;;;;2.10;1.50;;;15.60;88.80;;;;;;5081192;28;20451;-50
2021/06/08 04:10:59;;;;;;;1.83;1.17;;;15.60;87.60;;;;;;5081453;28;20471;-48
2021/06/08 04:13:29;;;;;;;1.40;1.30;;;15.60;88.40;;;;;;5082281;28;20460;-51
2021/06/08 04:16:00;;;;;;;2.37;1.30;;;15.60;89.20;;;;;;5081952;28;20475;-49
2021/06/08 04:18:32;;;;;;;1.57;1.47;;;15.60;89.50;;;;;;5081391;28;20491;-50
2021/06/08 04:21:03;;;;;;;1.70;1.27;;;15.60;90.40;;;;;;5081205;28;20467;-52
2021/06/08 04:23:34;;;;;;;2.17;1.60;;;15.60;90.60;;;;;;5082304;28;20444;-53
2021/06/08 04:26:06;;;;;;;1.83;1.30;;;15.50;90.50;;;;;;5081501;28;20805;-53
2021/06/08 04:28:36;;;;;;;4.27;2.27;;;15.50;91.20;;;;;;5080726;28;20453;-53
2021/06/08 04:31:07;;;;;;;1.67;1.53;;;15.40;91.80;;;;;;5081798;28;20778;-52
2021/06/08 04:33:37;;;;;;;1.67;1.40;;;15.40;91.70;;;;;;5082285;28;20490;-53
2021/06/08 04:36:09;;;;;;;4.17;1.20;;;15.30;91.80;;;;;;5081190;28;20452;-51
2021/06/08 04:38:40;;;;;;;1.67;1.33;;;15.30;92.20;;;;;;5080736;28;20550;-53
2021/06/08 04:41:13;;;;;;;1.50;1.30;;;15.20;92.70;;;;;;5081171;28;20447;-52
2021/06/08 04:43:44;;;;;;;2.60;1.50;;;15.20;92.60;;;;;;5085504;28;20459;-50
2021/06/08 04:46:16;;;;;;;1.50;1.40;;;15.20;92.80;;;;;;5084141;28;20648;-50
2021/06/08 04:48:47;;;;;;;2.57;1.57;;;15.10;93.40;;;;;;5082428;28;20479;-50
2021/06/08 04:51:17;;;;;;;1.47;1.23;;;15.00;93.90;;;;;;5084995;28;20489;-51
2021/06/08 04:53:48;;;;;;;2.83;1.40;;;15.00;94.30;;;;;;5084860;28;20454;-51
2021/06/08 04:56:20;;;;;;;1.73;1.40;;;14.90;94.00;;;;;;5083294;28;20456;-51
2021/06/08 04:58:51;;;;;;;2.50;1.30;;;14.90;95.10;;;;;;5084777;28;20790;-48
2021/06/08 05:01:27;;;;;;;1.83;1.40;;;14.80;95.30;;;;;;5085207;28;20481;-53
2021/06/08 05:04:03;;;;;;;2.37;1.43;;;14.80;95.50;;;;;;5084613;28;20505;-49
2021/06/08 05:06:38;;;;;;;1.43;1.00;;;14.70;96.00;;;;;;5083232;28;20490;-51
2021/06/08 05:09:14;;;;;;;2.93;1.43;;;14.70;96.50;;;;;;5081622;28;20450;-49
2021/06/08 05:11:52;;;;;;;2.07;1.23;;;14.70;96.50;;;;;;5085336;28;20588;-51
2021/06/08 05:14:29;;;;;;;2.50;1.53;;;14.70;96.90;;;;;;5084635;28;20478;-53
2021/06/08 05:17:02;;;;;;;1.37;1.27;;;14.70;97.30;;;;;;5084252;28;20448;-51
2021/06/08 05:19:35;;;;;;;3.93;1.27;;;14.70;96.70;;;;;;5083955;28;20479;-53
2021/06/08 05:22:06;;;;;;;1.53;1.20;;;14.70;97.20;;;;;;5084551;28;20443;-48
2021/06/08 05:24:37;;;;;;;2.53;1.53;;;14.70;97.10;;;;;;5083359;28;20443;-48
2021/06/08 05:27:11;;;;;;;1.37;1.27;;;14.80;97.30;;;;;;5083712;28;20442;-52
2021/06/08 05:29:42;;;;;;;1.70;1.40;;;14.70;97.10;;;;;;5086160;28;20490;-51
2021/06/08 05:32:14;;;;;;;1.80;1.47;;;14.70;98.20;;;;;;5084018;28;20538;-50
2021/06/08 05:34:47;;;;;;;2.33;1.30;;;14.70;99.00;;;;;;5084128;28;20459;-53
2021/06/08 05:37:18;;;;;;;1.23;1.20;;;14.70;99.90;;;;;;5084390;28;20968;-53
2021/06/08 05:39:49;;;;;;;3.57;1.40;;;14.70;99.90;;;;;;5082638;28;20489;-47
2021/06/08 05:42:21;;;;;;;2.10;1.43;;;14.70;99.90;;;;;;5084256;28;20901;-50
2021/06/08 05:44:54;;;;;;;1.70;1.60;;;14.70;99.90;;;;;;5083883;28;20475;-53
2021/06/08 05:47:25;;;;;;;2.30;1.43;;;14.70;99.90;;;;;;5084507;28;20447;-49
2021/06/08 05:49:56;;;;;;;3.10;1.50;;;14.70;99.90;;;;;;5077076;28;20456;-50
2021/06/08 05:52:27;;;;;;;2.83;1.43;;;14.60;99.90;;;;;;5084505;28;20824;-52
2021/06/08 05:54:59;;;;;;;3.40;1.60;;;14.60;99.90;;;;;;5083312;28;20444;-53
2021/06/08 05:57:32;;;;;;;4.83;1.37;;;14.70;99.90;;;;;;5084103;28;20495;-53
2021/06/08 06:00:04;;;;;;;2.80;1.17;;;14.60;99.90;;;;;;5083824;28;20483;-51
2021/06/08 06:02:36;;;;;;;1.53;1.10;;;14.50;99.90;;;;;;5084318;28;20459;-48
2021/06/08 06:05:09;;;;;;;2.47;1.47;;;14.50;99.90;;;;;;5083786;28;20451;-47
2021/06/08 06:07:40;;;;;;;1.77;1.40;;;14.50;99.90;;;;;;5083642;28;20447;-50
2021/06/08 06:10:12;;;;;;;2.17;1.20;;;14.50;99.90;;;;;;5082625;28;20452;-50
2021/06/08 06:12:45;;;;;;;1.80;1.20;;;14.50;99.90;;;;;;5084935;28;20497;-49
2021/06/08 06:15:16;;;;;;;3.17;1.30;;;14.50;99.90;;;;;;5078412;28;20451;-49
2021/06/08 06:17:48;;;;;;;3.73;1.70;;;14.40;99.90;;;;;;5083352;28;20448;-49
2021/06/08 06:20:21;;;;;;;1.60;1.30;;;14.50;99.90;;;;;;5082763;28;20505;-49
2021/06/08 06:22:52;;;;;;;1.53;1.00;;;14.50;99.90;;;;;;5080883;28;20447;-53
2021/06/08 06:25:25;;;;;;;1.83;1.30;;;14.40;99.90;;;;;;5078241;28;20455;-56
2021/06/08 06:27:57;;;;;;;1.47;1.30;;;14.40;99.90;;;;;;5083823;28;20467;-48
2021/06/08 06:30:28;;;;;;;1.80;1.70;;;14.30;99.90;;;;;;5082822;28;20483;-52
2021/06/08 06:32:58;;;;;;;1.73;1.63;;;14.30;99.90;;;;;;5083537;28;20500;-51
2021/06/08 06:35:29;;;;;;;1.57;1.30;;;14.30;99.90;;;;;;5083157;28;20456;-52
2021/06/08 06:38:00;;;;;;;4.80;1.80;;;14.30;99.90;;;;;;5082542;28;20480;-52
2021/06/08 06:40:32;;;;;;;1.67;1.40;;;14.30;99.90;;;;;;5081955;28;20487;-53
2021/06/08 06:43:06;;;;;;;2.60;1.43;;;14.30;99.90;;;;;;5083526;28;20478;-54
2021/06/08 06:45:38;;;;;;;2.30;1.40;;;14.20;99.90;;;;;;5081783;28;20522;-55
2021/06/08 06:48:12;;;;;;;4.43;1.40;;;14.20;99.90;;;;;;5082857;28;20475;-52
2021/06/08 06:50:43;;;;;;;1.47;1.37;;;14.20;99.90;;;;;;5081997;28;21000;-54
2021/06/08 06:53:16;;;;;;;3.00;1.47;;;14.20;99.90;;;;;;5082025;28;20459;-51
2021/06/08 06:55:50;;;;;;;1.83;1.40;;;14.10;99.90;;;;;;5066874;28;20441;-51
2021/06/08 06:58:23;;;;;;;2.80;1.57;;;14.00;99.90;;;;;;5072311;28;20443;-48
2021/06/08 07:00:54;;;;;;;1.80;1.47;;;13.90;99.90;;;;;;5082290;28;20793;-51
2021/06/08 07:03:29;;;;;;;2.63;1.30;;;13.90;99.90;;;;;;5080241;28;20454;-54
2021/06/08 07:06:00;;;;;;;3.37;1.37;;;13.90;99.90;;;;;;5081534;28;20451;-54
2021/06/08 07:08:33;;;;;;;2.70;1.63;;;14.00;99.90;;;;;;5078705;28;20475;-53
2021/06/08 07:11:03;;;;;;;1.90;1.50;;;14.00;99.90;;;;;;5081185;28;20447;-52
2021/06/08 07:13:37;;;;;;;5.23;1.90;;;14.00;99.90;;;;;;5083044;28;20478;-51
2021/06/08 07:16:07;;;;;;;1.77;1.40;;;14.10;99.90;;;;;;5075509;28;20551;-48
2021/06/08 07:18:39;;;;;;;2.10;1.70;;;14.10;99.90;;;;;;5077872;28;20460;-51
2021/06/08 07:21:10;;;;;;;1.70;1.43;;;14.00;99.90;;;;;;5081500;28;20491;-49
2021/06/08 07:23:40;;;;;;;2.30;1.33;;;14.00;99.90;;;;;;5081927;28;20486;-49
2021/06/08 07:26:13;;;;;;;2.00;1.43;;;14.10;99.90;;;;;;5081420;28;20482;-49
2021/06/08 07:28:46;;;;;;;2.30;1.50;;;14.10;99.90;;;;;;5091324;28;20442;-52
2021/06/08 07:31:24;;;;;;;4.00;1.50;;;14.10;99.90;;;;;;5084608;28;20451;-51
2021/06/08 07:34:02;;;;;;;1.70;1.40;;;14.10;99.90;;;;;;5082116;28;20970;-49
2021/06/08 07:36:42;;;;;;;2.73;1.10;;;14.10;99.90;;;;;;5082458;28;20446;-47
2021/06/08 07:39:21;;;;;;;1.77;1.43;;;14.10;99.90;;;;;;5081207;28;20510;-51
2021/06/08 07:42:00;;;;;;;2.17;1.70;;;14.20;99.90;;;;;;5078640;28;20487;-48
2021/06/08 07:44:37;;;;;;;3.73;1.67;;;14.20;99.90;;;;;;5074570;28;20499;-48
2021/06/08 07:47:09;;;;;;;4.30;1.77;;;14.10;99.90;;;;;;5082588;28;20471;-49
2021/06/08 07:49:39;;;;;;;3.10;1.90;;;14.10;99.90;;;;;;5081141;28;20536;-51
2021/06/08 07:52:09;;;;;;;6.00;1.63;;;14.10;99.90;;;;;;5081488;28;20444;-50
2021/06/08 07:54:41;;;;;;;3.03;1.40;;;14.10;99.90;;;;;;5080785;28;20451;-50
2021/06/08 07:57:12;;;;;;;2.10;1.43;;;14.00;99.90;;;;;;5082447;28;20473;-54
2021/06/08 07:59:45;;;;;;;1.87;1.50;;;13.90;99.90;;;;;;5081379;28;20533;-51
2021/06/08 08:02:19;;;;;;;2.00;1.17;;;13.90;99.90;;;;;;5082100;28;20563;-47
2021/06/08 08:04:52;;;;;;;4.40;1.30;;;13.80;99.90;;;;;;5081683;28;20465;-48
2021/06/08 08:07:23;;;;;;;6.70;2.10;;;13.70;99.90;;;;;;5082271;28;20486;-50
2021/06/08 08:09:54;;;;;;;1.30;1.20;;;13.50;99.90;;;;;;5080800;28;20494;-50
2021/06/08 08:12:25;;;;;;;2.50;1.43;;;13.40;99.90;;;;;;5081998;28;20539;-48
2021/06/08 08:14:58;;;;;;;2.60;1.27;;;13.30;99.90;;;;;;5082129;28;20869;-47
2021/06/08 08:17:29;;;;;;;4.37;1.53;;;13.20;99.90;;;;;;5084324;28;20479;-50
2021/06/08 08:20:00;;;;;;;1.33;1.07;;;13.20;99.90;;;;;;5084687;28;20499;-52
2021/06/08 08:22:31;;;;;;;2.20;1.30;;;13.30;99.90;;;;;;5084982;28;20628;-50
2021/06/08 08:25:01;;;;;;;3.80;1.60;;;13.30;99.90;;;;;;5084089;28;20455;-46
2021/06/08 08:27:32;;;;;;;2.43;1.20;;;13.40;99.90;;;;;;5085783;28;20547;-52
2021/06/08 08:30:05;;;;;;;3.10;1.50;;;13.50;99.90;;;;;;5085638;28;20928;-49
2021/06/08 08:32:35;;;;;;;1.90;1.60;;;13.50;99.90;;;;;;5085716;28;20487;-51
2021/06/08 08:35:07;;;;;;;2.63;1.60;;;13.50;99.90;;;;;;5082862;28;20462;-49
2021/06/08 08:37:37;;;;;;;3.83;1.60;;;13.60;99.90;;;;;;5085414;28;20482;-50
2021/06/08 08:40:09;;;;;;;2.73;1.33;;;13.60;99.90;;;;;;5083979;28;20554;-50
2021/06/08 08:42:40;;;;;;;2.43;1.47;;;13.60;99.90;;;;;;5085727;28;20478;-48
2021/06/08 08:45:15;;;;;;;2.37;1.27;;;13.60;99.90;;;;;;5085254;28;20483;-48
2021/06/08 08:47:45;;;;;;;2.30;1.40;;;13.70;99.90;;;;;;5084844;28;20449;-49
2021/06/08 08:50:17;;;;;;;2.67;1.70;;;13.70;99.90;;;;;;5085101;28;20490;-49
2021/06/08 08:52:55;;;;;;;3.33;1.83;;;13.80;99.90;;;;;;5085166;28;20990;-47
2021/06/08 08:55:26;;;;;;;2.20;1.27;;;13.80;99.90;;;;;;5083778;28;20451;-50
2021/06/08 08:57:59;;;;;;;2.87;1.77;;;13.80;99.90;;;;;;5085146;28;20443;-51
2021/06/08 09:00:33;;;;;;;2.50;1.40;;;13.90;99.90;;;;;;5084346;28;20536;-49
2021/06/08 09:03:07;;;;;;;1.70;1.33;;;13.80;99.90;;;;;;5084927;28;20931;-50
2021/06/08 09:05:37;;;;;;;1.97;1.20;;;13.90;99.90;;;;;;5084368;28;20488;-47
2021/06/08 09:08:09;;;;;;;3.70;1.50;;;13.80;99.90;;;;;;5082565;28;20479;-48
2021/06/08 09:10:42;;;;;;;3.13;1.73;;;13.80;99.90;;;;;;5083653;28;20531;-48
2021/06/08 09:13:12;;;;;;;4.80;1.60;;;13.80;99.90;;;;;;5084820;28;20440;-50
2021/06/08 09:15:44;;;;;;;2.30;1.20;;;13.80;99.90;;;;;;5084666;28;20454;-50
2021/06/08 09:18:16;;;;;;;3.00;1.63;;;13.80;99.90;;;;;;5085172;28;20447;-49
2021/06/08 09:20:46;;;;;;;2.60;1.60;;;13.80;99.90;;;;;;5084282;28;20510;-52
2021/06/08 09:23:24;;;;;;;2.70;1.53;;;13.80;99.90;;;;;;5084821;28;20485;-52
2021/06/08 09:25:56;;;;;;;3.03;1.70;;;13.80;99.90;;;;;;5082304;28;20482;-53
2021/06/08 09:28:29;;;;;;;1.97;1.50;;;13.80;99.90;;;;;;5090238;28;20470;-49
2021/06/08 09:31:04;;;;;;;4.67;1.53;;;13.80;99.90;;;;;;5093607;28;20471;-52
2021/06/08 09:33:36;;;;;;;2.67;1.47;;;13.80;99.90;;;;;;5084687;28;20443;-50
2021/06/08 09:36:09;;;;;;;4.07;1.70;;;13.80;99.90;;;;;;5067862;28;20456;-49
2021/06/08 09:38:54;;;;;;;3.87;1.50;;;13.70;99.90;;;;;;5084612;28;20447;-51
2021/06/08 09:41:27;;;;;;;2.47;1.43;;;13.60;99.90;;;;;;5083437;28;20582;-49
2021/06/08 09:44:18;;;;;;;2.90;1.60;;;13.70;99.90;;;;;;5084125;28;20932;-47
2021/06/08 09:46:53;;;;;;;1.90;1.53;;;13.70;99.90;;;;;;5084622;28;20485;-50
2021/06/08 09:49:35;;;;;;;3.03;1.30;;;13.80;99.90;;;;;;5084191;28;20446;-50
2021/06/08 09:52:07;;;;;;;2.47;1.37;;;13.80;99.90;;;;;;5084123;28;20955;-51
2021/06/08 09:54:39;;;;;;;2.43;1.47;;;13.80;99.90;;;;;;5082295;28;20506;-51
2021/06/08 09:57:18;;;;;;;2.03;1.20;;;13.80;99.90;;;;;;5083864;28;20494;-52
2021/06/08 09:59:55;;;;;;;2.50;1.40;;;13.70;99.90;;;;;;5083776;28;20471;-49
2021/06/08 10:02:45;;;;;;;2.30;1.20;;;13.70;99.90;;;;;;5083382;28;20466;-50
2021/06/08 10:05:19;;;;;;;4.67;1.30;;;13.60;99.90;;;;;;5083259;28;20491;-50
2021/06/08 10:07:51;;;;;;;3.00;1.80;;;13.50;99.90;;;;;;5084238;28;20510;-49
2021/06/08 10:10:23;;;;;;;1.50;1.40;;;13.50;99.90;;;;;;5082811;28;20462;-50
2021/06/08 10:13:01;;;;;;;2.43;1.33;;;13.40;99.90;;;;;;5083746;28;20507;-48
2021/06/08 10:15:34;;;;;;;1.33;1.23;;;13.30;99.90;;;;;;5083443;28;20555;-50
2021/06/08 10:18:08;;;;;;;3.30;1.47;;;13.20;99.90;;;;;;5083624;28;20448;-49
2021/06/08 10:20:40;;;;;;;3.37;1.40;;;13.30;99.90;;;;;;5083030;28;20563;-47
2021/06/08 10:23:22;;;;;;;3.93;1.70;;;13.30;99.90;;;;;;5082452;28;20440;-52
2021/06/08 10:25:54;;;;;;;2.00;1.50;;;13.30;99.90;;;;;;5082924;28;20451;-51
2021/06/08 10:28:24;;;;;;;3.93;2.17;;;13.20;99.90;;;;;;5083601;28;20501;-49
2021/06/08 10:30:56;;;;;;;3.80;2.23;;;13.20;99.90;;;;;;5083199;28;20466;-52
2021/06/08 10:33:47;;;;;;;2.17;1.87;;;13.10;99.90;;;;;;5083119;28;20443;-48
2021/06/08 10:36:26;;;;;;;2.70;2.17;;;13.00;99.90;;;;;;5082931;28;20447;-51
2021/06/08 10:38:57;;;;;;;5.70;2.50;;;12.90;99.90;;;;;;5082490;28;20534;-49
2021/06/08 10:41:28;;;;;;;2.10;1.90;;;12.80;99.90;;;;;;5082126;28;20537;-48
2021/06/08 10:44:21;;;;;;;3.23;2.50;;;12.70;99.90;;;;;;5083191;28;20498;-50
2021/06/08 10:46:55;;;;;;;3.63;1.90;;;12.60;99.90;;;;;;5083625;28;20431;-51
2021/06/08 10:49:37;;;;;;;3.60;2.40;;;12.50;99.90;;;;;;5082802;28;20448;-54
2021/06/08 10:52:09;;;;;;;2.90;2.10;;;12.50;99.90;;;;;;5083430;28;20487;-53
2021/06/08 10:54:40;;;;;;;2.93;1.90;;;12.60;99.90;;;;;;5080644;28;20459;-53
2021/06/08 10:57:13;;;;;;;2.10;1.87;;;12.60;99.90;;;;;;5082954;28;21014;-53
2021/06/08 10:59:46;;;;;;;1.93;1.83;;;12.60;99.90;;;;;;5082502;28;20443;-50
2021/06/08 11:02:46;;;;;;;3.37;2.20;;;12.60;99.90;;;;;;5082872;28;20487;-48
2021/06/08 11:05:19;;;;;;;3.30;2.30;;;12.60;99.90;;;;;;5082724;28;20469;-49
2021/06/08 11:07:53;;;;;;;2.70;2.43;;;12.60;99.90;;;;;;5082302;28;20493;-50
2021/06/08 11:10:51;;;;;;;4.37;2.10;;;12.60;99.90;;;;;;5081432;28;20456;-52
2021/06/08 11:13:55;;;;;;;3.43;2.30;;;12.60;99.90;;;;;;5082407;28;20440;-50
2021/06/08 11:16:33;;;;;;;4.57;2.27;;;12.70;99.90;;;;;;5082682;28;20458;-46
2021/06/08 11:19:05;;;;;;;3.80;2.10;;;12.60;99.90;;;;;;5082666;28;20815;-52
2021/06/08 11:21:37;;;;;;;2.20;2.00;;;12.70;99.90;;;;;;5081193;28;20535;-48
2021/06/08 11:24:35;;;;;;;2.43;2.13;;;12.70;99.90;;;;;;5081330;28;20459;-47
2021/06/08 11:27:06;;;;;;;3.40;2.00;;;12.60;99.90;;;;;;5082534;28;20494;-46
2021/06/08 11:29:53;;;;;;;2.33;1.93;;;12.60;99.90;;;;;;5084628;28;20515;-47
2021/06/08 11:32:48;;;;;;;4.53;2.17;;;12.60;99.90;;;;;;5076331;28;20481;-47
2021/06/08 11:35:22;;;;;;;1.97;1.87;;;12.60;99.90;;;;;;5082260;28;20479;-48
2021/06/08 11:38:05;;;;;;;4.90;2.00;;;12.60;99.90;;;;;;5082779;28;20451;-50
2021/06/08 11:40:58;;;;;;;1.87;1.73;;;12.60;99.90;;;;;;5081510;28;21055;-49
2021/06/08 11:43:59;;;;;;;5.13;2.20;;;12.60;99.90;;;;;;5082107;28;20502;-49
2021/06/08 11:46:32;;;;;;;6.13;2.27;;;12.50;99.90;;;;;;5082636;28;20450;-46
2021/06/08 11:49:15;;;;;;;2.60;2.37;;;12.50;99.90;;;;;;5081815;28;20501;-48
2021/06/08 11:51:51;;;;;;;3.63;2.27;;;12.50;99.90;;;;;;5084413;28;20447;-49
2021/06/08 11:54:46;;;;;;;2.60;2.40;;;12.50;99.90;;;;;;5084859;28;20451;-49
2021/06/08 11:57:35;;;;;;;3.17;2.47;;;12.60;99.90;;;;;;5081532;28;20915;-48
2021/06/08 12:00:07;;;;;;;3.07;2.43;;;12.60;99.90;;;;;;5085899;28;20757;-51
2021/06/08 12:02:41;;;;;;;3.47;2.70;;;12.70;99.90;;;;;;5086158;28;20455;-49
2021/06/08 12:05:20;;;;;;;4.70;2.50;;;12.70;99.90;;;;;;5085807;28;20481;-49
2021/06/08 12:07:53;;;;;;;2.67;2.47;;;12.70;99.90;;;;;;5086390;28;20564;-48
2021/06/08 12:10:36;;;;;;;2.97;2.40;;;12.80;99.90;;;;;;5085112;28;20451;-51
2021/06/08 12:13:12;;;;;;;4.67;2.57;;;12.80;99.90;;;;;;5086118;28;20535;-52
2021/06/08 12:15:44;;;;;;;2.97;2.53;;;12.80;99.90;;;;;;5085590;28;20504;-49
2021/06/08 12:18:16;;;;;;;4.70;2.97;;;12.70;99.90;;;;;;5086598;28;20522;-49
2021/06/08 12:20:48;;;;;;;2.80;1.87;;;12.80;99.90;;;;;;5084513;28;20513;-50
2021/06/08 12:23:28;;;;;;;3.30;2.77;;;12.70;99.90;;;;;;5085916;28;20554;-50
2021/06/08 12:26:09;;;;;;;6.30;2.70;;;12.70;99.90;;;;;;5084746;28;20451;-52
2021/06/08 12:28:40;;;;;;;4.03;2.30;;;12.70;99.90;;;;;;5085324;28;20479;-50
2021/06/08 12:31:14;;;;;;;3.73;2.53;;;12.60;99.90;;;;;;5072575;28;20472;-50
2021/06/08 12:33:45;;;;;;;3.13;2.83;;;12.60;99.90;;;;;;5085874;28;20447;-47
2021/06/08 12:36:16;;;;;;;3.27;2.97;;;12.50;99.90;;;;;;5085492;28;20451;-50
2021/06/08 12:38:47;;;;;;;3.33;2.60;;;12.50;99.90;;;;;;5085062;28;20523;-47
2021/06/08 12:41:23;;;;;;;4.07;2.50;;;12.40;99.90;;;;;;5084829;28;20547;-49
2021/06/08 12:43:56;;;;;;;2.63;2.37;;;12.40;99.90;;;;;;5085165;28;20601;-52
2021/06/08 12:46:28;;;;;;;2.67;2.40;;;12.30;99.90;;;;;;5085424;28;20550;-48
2021/06/08 12:49:05;;;;;;;3.40;2.60;;;12.30;99.90;;;;;;5085816;28;20447;-51
2021/06/08 12:51:37;;;;;;;3.87;2.77;;;12.30;99.90;;;;;;5085657;28;20447;-51
2021/06/08 12:54:09;;;;;;;4.93;2.40;;;12.30;99.90;;;;;;5083854;28;20447;-47
2021/06/08 12:56:41;;;;;;;3.23;2.40;;;12.40;99.90;;;;;;5085681;28;20447;-51
2021/06/08 12:59:11;;;;;;;2.70;2.43;;;12.40;99.90;;;;;;5068710;28;20538;-49
2021/06/08 13:01:42;;;;;;;4.63;2.23;;;12.50;99.90;;;;;;5085356;28;20483;-53
2021/06/08 13:04:13;;;;;;;3.80;2.70;;;12.60;99.90;;;;;;5084287;28;20501;-51
2021/06/08 13:06:43;;;;;;;4.97;2.60;;;12.60;99.90;;;;;;5083810;28;20524;-52
2021/06/08 13:09:14;;;;;;;2.50;2.30;;;12.60;99.90;;;;;;5083308;28;20918;-48
2021/06/08 13:11:46;;;;;;;3.30;2.83;;;12.60;99.90;;;;;;5085304;28;20475;-54
2021/06/08 13:14:20;;;;;;;4.83;2.93;;;12.70;99.90;;;;;;5084526;28;20543;-51
2021/06/08 13:16:50;;;;;;;3.47;2.80;;;12.70;99.90;;;;;;5083861;28;20559;-48
2021/06/08 13:19:22;;;;;;;3.20;2.90;;;12.70;99.90;;;;;;5084987;28;21194;-49